Aviation Digital Data Service (ADDS)

Output produced by METARs form (1652 UTC 23 September 2020)
found at http://aviationweather.gov/metar/data/
 
KARA 231602Z 13015G21KT 10SM FEW017 SCT025 BKN038 29/25 A2984 RMK AO2 T02890250
KARA 231553Z 13013G18KT 10SM SCT019 BKN025 BKN030 28/25 A2983 RMK AO2 SLP102 T02830250
KARA 231438Z 2315/2412 12008KT P6SM VCSH SCT007 SCT015 
     FM231700 17012G18KT P6SM VCTS OVC015CB 
     FM240000 21010KT P6SM VCSH OVC015 
     FM240300 VRB06KT P6SM OVC007 
     FM240600 31010KT P6SM BKN007 OVC015